createdAt,value
2022-08-21T00:02:30.158Z,98171.25
2022-08-21T00:04:57.714Z,98149.00
2022-08-21T00:07:25.522Z,98152.31
2022-08-21T00:09:53.525Z,98156.22
2022-08-21T00:12:20.780Z,98151.91
2022-08-21T00:14:47.507Z,98153.34
2022-08-21T00:17:14.188Z,98148.19
2022-08-21T00:19:40.870Z,98134.59
2022-08-21T00:22:07.531Z,98123.47
2022-08-21T00:24:34.368Z,98136.00
2022-08-21T00:27:01.076Z,98119.16
2022-08-21T00:29:27.731Z,98134.41
2022-08-21T00:31:54.435Z,98111.16
2022-08-21T00:34:21.287Z,98127.22
2022-08-21T00:36:47.926Z,98126.81
2022-08-21T00:39:14.571Z,98134.03
2022-08-21T00:41:42.759Z,98107.88
2022-08-21T00:44:12.913Z,98131.31
2022-08-21T00:46:40.780Z,98128.84
2022-08-21T00:49:08.544Z,98134.22
2022-08-21T00:51:44.422Z,98124.53
2022-08-21T00:54:18.790Z,98133.38
2022-08-21T00:56:49.046Z,98105.41
2022-08-21T00:59:18.018Z,98100.03
2022-08-21T01:01:44.758Z,98094.09
2022-08-21T01:04:12.499Z,98114.03
2022-08-21T01:06:39.134Z,98090.16
2022-08-21T01:09:05.825Z,98078.41
2022-08-21T01:11:35.779Z,98100.06
2022-08-21T01:14:05.873Z,98103.34
2022-08-21T01:16:34.015Z,98111.97
2022-08-21T01:19:00.648Z,98084.19
2022-08-21T01:21:29.209Z,98111.16
2022-08-21T01:23:57.721Z,98122.50
2022-08-21T01:26:33.926Z,98117.34
2022-08-21T01:29:20.914Z,98106.44
2022-08-21T01:31:47.821Z,98117.94
2022-08-21T01:34:16.637Z,98107.06
2022-08-21T01:36:45.772Z,98109.31
2022-08-21T01:39:12.555Z,98106.22
2022-08-21T01:41:39.120Z,98116.72
2022-08-21T01:44:05.910Z,98096.28
2022-08-21T01:46:32.609Z,98088.69
2022-08-21T01:48:59.292Z,98117.75
2022-08-21T01:51:25.884Z,98095.13
2022-08-21T01:53:52.656Z,98104.75
2022-08-21T01:56:19.672Z,98105.38
2022-08-21T01:58:48.189Z,98098.34
2022-08-21T02:01:15.110Z,98086.19
2022-08-21T02:03:42.453Z,98100.44
2022-08-21T02:06:14.840Z,98084.97
2022-08-21T02:08:41.779Z,98078.78
2022-08-21T02:11:08.443Z,98071.19
2022-08-21T02:13:37.238Z,98075.91
2022-08-21T02:16:04.003Z,98088.06
2022-08-21T02:18:30.838Z,98056.34
2022-08-21T02:20:57.526Z,98059.19
2022-08-21T02:23:27.200Z,98098.13
2022-08-21T02:26:07.637Z,98077.13
2022-08-21T02:28:34.864Z,98085.75
2022-08-21T02:31:02.401Z,98088.03
2022-08-21T02:33:29.763Z,98082.66
2022-08-21T02:35:57.479Z,98082.47
2022-08-21T02:38:29.158Z,98056.31
2022-08-21T02:40:56.460Z,98066.19
2022-08-21T02:43:25.037Z,98078.56
2022-08-21T02:45:52.685Z,98073.63
2022-08-21T02:48:22.661Z,98076.28
2022-08-21T02:50:54.565Z,98080.81
2022-08-21T02:53:21.372Z,98066.59
2022-08-21T02:55:50.264Z,98080.97
2022-08-21T02:58:20.960Z,98045.28
2022-08-21T03:00:48.251Z,98060.75
2022-08-21T03:03:15.712Z,98079.28
2022-08-21T03:05:44.348Z,98059.91
2022-08-21T03:08:13.261Z,98088.56
2022-08-21T03:10:46.028Z,98091.59
2022-08-21T03:13:13.380Z,98096.88
2022-08-21T03:15:43.278Z,98072.47
2022-08-21T03:18:11.053Z,98091.53
2022-08-21T03:20:39.646Z,98084.19
2022-08-21T03:23:12.451Z,98094.59
2022-08-21T03:25:43.623Z,98063.13
2022-08-21T03:28:15.176Z,98081.59
2022-08-21T03:30:44.745Z,98089.69
2022-08-21T03:33:12.296Z,98073.03
2022-08-21T03:35:43.480Z,98071.03
2022-08-21T03:38:10.499Z,98029.00
2022-08-21T03:40:37.226Z,98056.56
2022-08-21T03:43:03.880Z,98057.81
2022-08-21T03:45:30.576Z,98033.44
2022-08-21T03:48:02.672Z,98063.06
2022-08-21T03:50:32.954Z,98067.00
2022-08-21T03:53:02.120Z,98025.03
2022-08-21T03:55:29.185Z,98059.38
2022-08-21T03:57:56.854Z,98060.66
2022-08-21T04:00:24.351Z,98060.03
2022-08-21T04:02:51.441Z,98045.81
2022-08-21T04:05:39.210Z,98064.09
2022-08-21T04:08:07.355Z,98040.19
2022-08-21T04:10:36.326Z,98068.75
2022-08-21T04:13:04.705Z,98067.69
2022-08-21T04:15:31.502Z,98050.13
2022-08-21T04:17:58.090Z,98076.38
2022-08-21T04:20:26.031Z,98070.22
2022-08-21T04:22:53.220Z,98069.44
2022-08-21T04:25:22.544Z,98069.84
2022-08-21T04:27:49.726Z,98075.34
2022-08-21T04:30:17.288Z,98070.84
2022-08-21T04:32:45.976Z,98091.97
2022-08-21T04:35:14.528Z,98106.59
2022-08-21T04:37:42.109Z,98091.50
2022-08-21T04:40:11.290Z,98119.06
2022-08-21T04:42:47.498Z,98107.13
2022-08-21T04:45:21.505Z,98109.94
2022-08-21T04:47:52.834Z,98113.81
2022-08-21T04:50:25.614Z,98094.19
2022-08-21T04:52:52.475Z,98115.63
2022-08-21T04:55:21.173Z,98117.63
2022-08-21T04:57:48.987Z,98115.69
2022-08-21T05:00:19.732Z,98124.16
2022-08-21T05:02:48.792Z,98130.31
2022-08-21T05:05:17.117Z,98109.78
2022-08-21T05:07:45.587Z,98120.34
2022-08-21T05:10:15.040Z,98121.59
2022-08-21T05:12:50.807Z,98113.34
2022-08-21T05:15:18.209Z,98092.09
2022-08-21T05:17:53.746Z,98097.88
2022-08-21T05:20:28.072Z,98086.34
2022-08-21T05:22:54.744Z,98099.53
2022-08-21T05:25:22.251Z,98094.63
2022-08-21T05:27:51.948Z,98089.28
2022-08-21T05:30:20.793Z,98081.44
2022-08-21T05:32:48.773Z,98079.63
2022-08-21T05:35:16.120Z,98100.53
2022-08-21T05:37:42.722Z,98061.56
2022-08-21T05:40:21.324Z,98061.56
2022-08-21T05:42:54.548Z,98074.16
2022-08-21T05:45:42.980Z,98099.34
2022-08-21T05:48:31.240Z,98101.47
2022-08-21T05:50:58.562Z,98101.66
2022-08-21T05:53:25.605Z,98079.63
2022-08-21T05:55:52.911Z,98097.81
2022-08-21T05:58:21.930Z,98098.66
2022-08-21T06:00:50.103Z,98096.63
2022-08-21T06:03:29.186Z,98107.13
2022-08-21T06:05:56.906Z,98107.16
2022-08-21T06:08:24.303Z,98115.22
2022-08-21T06:10:53.804Z,98118.09
2022-08-21T06:13:21.960Z,98127.13
2022-08-21T06:15:49.380Z,98115.22
2022-08-21T06:18:16.350Z,98099.00
2022-08-21T06:20:43.233Z,98121.25
2022-08-21T06:23:10.327Z,98121.03
2022-08-21T06:25:37.133Z,98129.28
2022-08-21T06:28:03.819Z,98127.63
2022-08-21T06:30:30.522Z,98127.22
2022-08-21T06:32:57.199Z,98124.75
2022-08-21T06:35:25.490Z,98126.56
2022-08-21T06:37:52.138Z,98114.44
2022-08-21T06:40:18.882Z,98123.28
2022-08-21T06:42:49.837Z,98120.97
2022-08-21T06:45:16.773Z,98118.19
2022-08-21T06:47:43.294Z,98097.41
2022-08-21T06:50:10.123Z,98109.06
2022-08-21T06:52:38.353Z,98121.56
2022-08-21T06:55:10.638Z,98127.53
2022-08-21T06:57:37.261Z,98103.81
2022-08-21T07:00:08.084Z,98126.91
2022-08-21T07:02:34.802Z,98120.78
2022-08-21T07:05:01.917Z,98122.25
2022-08-21T07:07:47.477Z,98104.72
2022-08-21T07:10:21.759Z,98103.38
2022-08-21T07:12:50.760Z,98096.44
2022-08-21T07:15:18.079Z,98122.19
2022-08-21T07:17:47.229Z,98117.91
2022-08-21T07:20:16.319Z,98111.59
2022-08-21T07:22:43.709Z,98115.84
2022-08-21T07:25:10.549Z,98116.97
2022-08-21T07:27:37.184Z,98102.78
2022-08-21T07:30:05.554Z,98101.41
2022-08-21T07:32:32.438Z,98116.13
2022-08-21T07:34:58.996Z,98118.44
2022-08-21T07:37:26.077Z,98113.22
2022-08-21T07:39:52.679Z,98110.91
2022-08-21T07:42:19.364Z,98102.59
2022-08-21T07:44:49.544Z,98106.13
2022-08-21T07:47:41.334Z,98092.59
2022-08-21T07:50:16.257Z,98106.91
2022-08-21T07:52:44.832Z,98116.81
2022-08-21T07:55:15.492Z,98111.22
2022-08-21T07:57:42.900Z,98097.25
2022-08-21T08:00:14.720Z,98069.97
2022-08-21T08:02:46.184Z,98078.09
2022-08-21T08:05:13.255Z,98063.97
2022-08-21T08:07:40.176Z,98070.72
2022-08-21T08:10:08.075Z,98069.28
2022-08-21T08:12:36.283Z,98087.59
2022-08-21T08:15:03.979Z,98083.22
2022-08-21T08:17:30.564Z,98101.56
2022-08-21T08:19:57.115Z,98098.13
2022-08-21T08:22:24.967Z,98103.47
2022-08-21T08:24:53.125Z,98106.34
2022-08-21T08:27:20.900Z,98100.38
2022-08-21T08:29:48.469Z,98095.97
2022-08-21T08:32:16.094Z,98093.72
2022-08-21T08:34:42.634Z,98078.88
2022-08-21T08:37:10.974Z,98078.31
2022-08-21T08:39:37.915Z,98075.84
2022-08-21T08:42:32.262Z,98076.56
2022-08-21T08:45:02.849Z,98061.44
2022-08-21T08:47:32.158Z,98050.25
2022-08-21T08:50:28.381Z,98062.66
2022-08-21T08:53:01.144Z,98059.06
2022-08-21T08:55:32.485Z,98071.59
2022-08-21T08:57:59.310Z,98073.19
2022-08-21T09:00:26.452Z,98066.22
2022-08-21T09:02:56.951Z,98063.81
2022-08-21T09:05:30.124Z,98061.03
2022-08-21T09:08:19.686Z,98069.91
2022-08-21T09:10:52.015Z,98064.25
2022-08-21T09:13:27.223Z,98068.63
2022-08-21T09:16:24.303Z,98068.81
2022-08-21T09:19:11.236Z,98069.50
2022-08-21T09:21:37.722Z,98072.25
2022-08-21T09:24:23.732Z,98072.25
2022-08-21T09:27:02.382Z,98076.06
2022-08-21T09:29:33.703Z,98074.66
2022-08-21T09:32:00.586Z,98065.69
2022-08-21T09:34:29.945Z,98072.50
2022-08-21T09:36:57.359Z,98065.19
2022-08-21T09:39:40.146Z,98078.22
2022-08-21T09:42:10.017Z,98067.59
2022-08-21T09:44:42.572Z,98066.78
2022-08-21T09:47:10.396Z,98075.78
2022-08-21T09:49:39.911Z,98078.22
2022-08-21T09:52:18.450Z,98071.94
2022-08-21T09:54:52.010Z,98073.81
2022-08-21T09:57:46.415Z,98069.94
2022-08-21T10:00:27.382Z,98056.84
2022-08-21T10:02:54.102Z,98057.75
2022-08-21T10:05:28.070Z,98066.38
2022-08-21T10:07:54.699Z,98047.53
2022-08-21T10:10:29.730Z,98055.41
2022-08-21T10:13:35.055Z,98051.81
2022-08-21T10:16:22.869Z,98049.41
2022-08-21T10:19:05.743Z,98037.97
2022-08-21T10:21:44.339Z,98043.03
2022-08-21T10:24:37.612Z,98038.00
2022-08-21T10:27:26.183Z,98037.34
2022-08-21T10:30:02.623Z,98034.19
2022-08-21T10:32:29.108Z,98038.50
2022-08-21T10:35:03.331Z,98038.50
2022-08-21T10:37:54.073Z,98053.28
2022-08-21T10:40:20.571Z,98048.13
2022-08-21T10:43:05.333Z,98051.78
2022-08-21T10:45:50.701Z,98033.25
2022-08-21T10:48:27.358Z,98019.94
2022-08-21T10:51:29.105Z,98027.06
2022-08-21T10:54:13.754Z,98030.88
2022-08-21T10:56:43.982Z,98019.78
2022-08-21T10:59:19.765Z,98020.19
2022-08-21T11:02:01.873Z,98017.00
2022-08-21T11:04:49.491Z,98020.66
2022-08-21T11:07:27.191Z,98020.06
2022-08-21T11:10:05.107Z,98003.75
2022-08-21T11:13:09.768Z,98014.75
2022-08-21T11:15:46.790Z,98018.47
2022-08-21T11:18:37.885Z,98011.19
2022-08-21T11:21:32.134Z,98004.25
2022-08-21T11:24:11.654Z,98009.22
2022-08-21T11:26:52.052Z,97999.84
2022-08-21T11:29:32.341Z,98015.63
2022-08-21T11:32:14.137Z,98025.44
2022-08-21T11:35:02.767Z,98010.31
2022-08-21T11:38:06.534Z,98027.28
2022-08-21T11:41:00.479Z,98032.56
2022-08-21T11:43:36.841Z,98035.94
2022-08-21T11:46:26.704Z,98023.75
2022-08-21T11:49:11.724Z,98030.38
2022-08-21T11:51:46.766Z,98032.53
2022-08-21T11:54:41.002Z,98029.84
2022-08-21T11:57:46.187Z,98026.56
2022-08-21T12:00:21.727Z,98025.19
2022-08-21T12:03:29.028Z,98021.94
2022-08-21T12:06:10.422Z,98022.22
2022-08-21T12:08:39.932Z,98024.94
2022-08-21T12:11:10.726Z,98015.97
2022-08-21T12:13:42.589Z,98016.81
2022-08-21T12:16:16.688Z,98018.56
2022-08-21T12:18:44.124Z,98015.84
2022-08-21T12:21:25.371Z,98016.28
2022-08-21T12:24:12.986Z,98012.81
2022-08-21T12:26:52.549Z,98013.97
2022-08-21T12:29:26.432Z,97997.91
2022-08-21T12:31:57.692Z,98005.19
2022-08-21T12:34:40.490Z,97995.88
2022-08-21T12:37:16.327Z,97998.97
2022-08-21T12:39:47.597Z,97993.75
2022-08-21T12:42:52.916Z,97996.63
2022-08-21T12:45:42.632Z,97993.69
2022-08-21T12:48:27.781Z,97988.47
2022-08-21T12:51:06.311Z,97973.00
2022-08-21T12:53:36.581Z,97981.88
2022-08-21T12:56:05.436Z,97972.72
2022-08-21T12:58:32.694Z,97972.09
2022-08-21T13:01:04.398Z,97971.63
2022-08-21T13:03:32.659Z,97972.31
2022-08-21T13:06:00.154Z,97947.53
2022-08-21T13:08:28.224Z,97969.59
2022-08-21T13:11:13.422Z,97971.75
2022-08-21T13:13:46.856Z,97964.03
2022-08-21T13:16:25.865Z,97949.72
2022-08-21T13:19:00.043Z,97975.34
2022-08-21T13:21:33.410Z,97965.16
2022-08-21T13:24:43.992Z,97963.16
2022-08-21T13:27:21.872Z,97964.41
2022-08-21T13:29:53.094Z,97956.63
2022-08-21T13:32:26.566Z,97946.63
2022-08-21T13:34:54.252Z,97945.03
2022-08-21T13:37:26.299Z,97935.50
2022-08-21T13:39:56.116Z,97947.75
2022-08-21T13:42:27.892Z,97940.16
2022-08-21T13:44:55.566Z,97947.75
2022-08-21T13:47:22.361Z,97948.78
2022-08-21T13:49:52.275Z,97956.25
2022-08-21T13:52:26.815Z,97945.72
2022-08-21T13:55:08.643Z,97950.13
2022-08-21T13:57:37.681Z,97947.00
2022-08-21T14:00:16.335Z,97950.47
2022-08-21T14:02:46.103Z,97950.59
2022-08-21T14:05:22.566Z,97955.00
2022-08-21T14:07:53.746Z,97958.53
2022-08-21T14:10:24.316Z,97954.66
2022-08-21T14:12:55.811Z,97955.94
2022-08-21T14:15:33.137Z,97949.06
2022-08-21T14:18:17.797Z,97943.56
2022-08-21T14:20:46.042Z,97951.53
2022-08-21T14:23:24.412Z,97953.28
2022-08-21T14:25:51.440Z,97959.66
2022-08-21T14:28:34.355Z,97954.06
2022-08-21T14:31:22.287Z,97944.91
2022-08-21T14:33:49.795Z,97948.22
2022-08-21T14:36:16.653Z,97954.53
2022-08-21T14:38:43.475Z,97953.69
2022-08-21T14:41:23.239Z,97951.19
2022-08-21T14:44:05.749Z,97946.44
2022-08-21T14:46:36.498Z,97944.72
2022-08-21T14:49:18.300Z,97941.09
2022-08-21T14:51:54.048Z,97920.59
2022-08-21T14:54:21.137Z,97936.53
2022-08-21T14:56:58.018Z,97927.25
2022-08-21T14:59:24.750Z,97909.81
2022-08-21T15:01:51.508Z,97925.84
2022-08-21T15:04:18.099Z,97922.16
2022-08-21T15:06:44.715Z,97910.91
2022-08-21T15:09:11.263Z,97921.94
2022-08-21T15:11:41.750Z,97905.53
2022-08-21T15:14:16.360Z,97915.59
2022-08-21T15:16:42.942Z,97921.75
2022-08-21T15:19:09.524Z,97926.34
2022-08-21T15:21:36.117Z,97919.19
2022-08-21T15:24:11.948Z,97922.44
2022-08-21T15:26:39.052Z,97910.03
2022-08-21T15:29:07.717Z,97909.75
2022-08-21T15:31:37.132Z,97887.03
2022-08-21T15:34:04.193Z,97911.03
2022-08-21T15:36:30.841Z,97895.25
2022-08-21T15:39:00.290Z,97890.59
2022-08-21T15:41:26.929Z,97898.75
2022-08-21T15:43:54.314Z,97900.38
2022-08-21T15:46:22.287Z,97904.72
2022-08-21T15:48:49.255Z,97909.78
2022-08-21T15:51:17.765Z,97906.13
2022-08-21T15:53:45.158Z,97905.91
2022-08-21T15:56:35.727Z,97904.69
2022-08-21T15:59:06.321Z,97894.25
2022-08-21T16:01:44.844Z,97889.22
2022-08-21T16:04:16.331Z,97900.22
2022-08-21T16:06:54.297Z,97899.09
2022-08-21T16:09:23.951Z,97891.72
2022-08-21T16:11:51.520Z,97892.84
2022-08-21T16:14:18.413Z,97887.00
2022-08-21T16:16:45.413Z,97876.75
2022-08-21T16:19:13.575Z,97870.31
2022-08-21T16:21:40.223Z,97869.41
2022-08-21T16:24:06.882Z,97875.50
2022-08-21T16:26:34.015Z,97873.94
2022-08-21T16:29:01.727Z,97877.56
2022-08-21T16:31:28.477Z,97886.31
2022-08-21T16:33:57.988Z,97876.53
2022-08-21T16:36:28.616Z,97874.44
2022-08-21T16:38:57.493Z,97867.22
2022-08-21T16:41:27.412Z,97879.47
2022-08-21T16:43:54.050Z,97857.75
2022-08-21T16:46:23.167Z,97857.78
2022-08-21T16:48:50.276Z,97874.94
2022-08-21T16:51:17.826Z,97873.34
2022-08-21T16:53:44.383Z,97864.63
2022-08-21T16:56:13.559Z,97865.19
2022-08-21T16:58:44.088Z,97859.75
2022-08-21T17:01:15.186Z,97867.31
2022-08-21T17:03:45.844Z,97858.63
2022-08-21T17:06:14.054Z,97872.19
2022-08-21T17:08:40.814Z,97860.50
2022-08-21T17:11:12.668Z,97858.63
2022-08-21T17:14:01.982Z,97866.22
2022-08-21T17:16:32.210Z,97869.97
2022-08-21T17:18:58.743Z,97872.13
2022-08-21T17:21:25.297Z,97869.66
2022-08-21T17:23:51.848Z,97858.19
2022-08-21T17:26:19.552Z,97871.44
2022-08-21T17:28:47.105Z,97872.75
2022-08-21T17:31:14.391Z,97865.16
2022-08-21T17:33:50.539Z,97873.03
2022-08-21T17:36:23.136Z,97864.56
2022-08-21T17:38:50.193Z,97871.06
2022-08-21T17:41:17.674Z,97862.59
2022-08-21T17:43:44.401Z,97870.13
2022-08-21T17:46:17.267Z,97865.13
2022-08-21T17:48:47.247Z,97883.00
2022-08-21T17:51:15.066Z,97876.94
2022-08-21T17:53:42.637Z,97875.19
2022-08-21T17:56:09.438Z,97887.63
2022-08-21T17:58:37.079Z,97892.72
2022-08-21T18:01:05.876Z,97890.75
2022-08-21T18:03:38.213Z,97884.72
2022-08-21T18:06:06.499Z,97884.22
2022-08-21T18:08:34.154Z,97889.88
2022-08-21T18:11:01.639Z,97875.94
2022-08-21T18:13:32.528Z,97864.50
2022-08-21T18:16:03.111Z,97872.03
2022-08-21T18:18:36.949Z,97868.09
2022-08-21T18:21:03.676Z,97867.41
2022-08-21T18:23:43.162Z,97869.16
2022-08-21T18:26:14.390Z,97874.19
2022-08-21T18:28:41.449Z,97879.84
2022-08-21T18:31:10.842Z,97882.94
2022-08-21T18:33:39.585Z,97876.06
2022-08-21T18:36:11.191Z,97875.66
2022-08-21T18:38:37.899Z,97885.84
2022-08-21T18:41:09.513Z,97873.28
2022-08-21T18:43:37.079Z,97874.03
2022-08-21T18:46:05.023Z,97895.97
2022-08-21T18:48:32.303Z,97886.25
2022-08-21T18:51:01.705Z,97871.16
2022-08-21T18:53:29.173Z,97888.16
2022-08-21T18:55:57.753Z,97867.31
2022-08-21T18:58:32.042Z,97864.97
2022-08-21T19:01:02.180Z,97880.56
2022-08-21T19:03:31.617Z,97853.56
2022-08-21T19:05:58.410Z,97891.25
2022-08-21T19:08:32.340Z,97869.41
2022-08-21T19:11:05.247Z,97888.22
2022-08-21T19:13:33.968Z,97893.00
2022-08-21T19:16:03.702Z,97881.72
2022-08-21T19:18:38.155Z,97909.78
2022-08-21T19:21:06.352Z,97912.88
2022-08-21T19:23:35.587Z,97916.53
2022-08-21T19:26:07.498Z,97923.88
2022-08-21T19:28:41.723Z,97924.81
2022-08-21T19:31:16.233Z,97935.34
2022-08-21T19:33:46.781Z,97929.41
2022-08-21T19:36:18.012Z,97939.53
2022-08-21T19:38:46.142Z,97933.72
2022-08-21T19:41:15.575Z,97935.22
2022-08-21T19:43:47.804Z,97917.69
2022-08-21T19:46:23.619Z,97932.56
2022-08-21T19:48:52.755Z,97933.94
2022-08-21T19:51:19.574Z,97937.56
2022-08-21T19:53:46.332Z,97921.81
2022-08-21T19:56:18.050Z,97940.88
2022-08-21T20:01:35.886Z,97932.78
2022-08-21T20:04:10.675Z,97944.63
2022-08-21T20:06:44.970Z,97948.03
2022-08-21T20:09:12.112Z,97931.88
2022-08-21T20:11:46.618Z,97954.06
2022-08-21T20:14:16.623Z,97956.38
2022-08-21T20:16:44.087Z,97957.56
2022-08-21T20:19:11.426Z,97947.75
2022-08-21T20:21:43.599Z,97932.16
2022-08-21T20:24:15.431Z,97954.53
2022-08-21T20:26:48.779Z,97953.56
2022-08-21T20:29:24.515Z,97947.97
2022-08-21T20:31:59.284Z,97946.66
2022-08-21T20:34:26.175Z,97949.97
2022-08-21T20:36:53.479Z,97947.50
2022-08-21T20:39:20.112Z,97958.88
2022-08-21T20:41:52.223Z,97958.59
2022-08-21T20:44:18.959Z,97958.13
2022-08-21T20:46:45.779Z,97950.41
2022-08-21T20:49:21.252Z,97961.44
2022-08-21T20:51:52.094Z,97966.25
2022-08-21T20:54:37.555Z,97963.44
2022-08-21T20:57:14.033Z,97967.88
2022-08-21T20:59:56.398Z,97961.22
2022-08-21T21:02:42.748Z,97973.22
2022-08-21T21:05:16.374Z,97950.84
2022-08-21T21:08:07.088Z,97976.22
2022-08-21T21:13:39.538Z,97975.56
2022-08-21T21:16:14.526Z,97966.88
2022-08-21T21:18:50.402Z,97995.22
2022-08-21T21:21:33.992Z,97977.00
2022-08-21T21:24:11.975Z,97994.13
2022-08-21T21:27:00.275Z,97997.00
2022-08-21T21:29:31.927Z,97988.00
2022-08-21T21:31:59.089Z,97998.88
2022-08-21T21:34:28.069Z,97996.34
2022-08-21T21:37:05.765Z,97999.31
2022-08-21T21:39:41.513Z,97997.06
2022-08-21T21:42:15.978Z,98004.91
2022-08-21T21:44:45.478Z,97999.31
2022-08-21T21:47:21.407Z,97988.75
2022-08-21T21:50:18.996Z,98005.34
2022-08-21T21:52:56.143Z,97993.66
2022-08-21T21:55:50.363Z,98005.88
2022-08-21T21:58:41.962Z,97996.28
2022-08-21T22:01:21.873Z,98004.72
2022-08-21T22:07:14.804Z,98000.50
2022-08-21T22:09:59.493Z,97982.97
2022-08-21T22:13:10.555Z,97985.66
2022-08-21T22:15:38.393Z,97989.75
2022-08-21T22:18:11.966Z,97994.69
2022-08-21T22:20:46.224Z,97989.44
2022-08-21T22:23:18.940Z,97981.69
2022-08-21T22:25:49.041Z,97997.97
2022-08-21T22:31:18.364Z,97996.56
2022-08-21T22:34:01.745Z,97993.88
2022-08-21T22:36:38.149Z,97993.88
2022-08-21T22:39:11.950Z,97992.72
2022-08-21T22:41:43.726Z,97978.19
2022-08-21T22:44:22.545Z,97995.06
2022-08-21T22:46:51.182Z,97992.22
2022-08-21T22:49:34.334Z,97990.81
2022-08-21T22:52:18.309Z,97995.22
2022-08-21T22:54:45.368Z,97991.81
2022-08-21T22:57:32.330Z,98008.31
2022-08-21T23:00:11.877Z,98001.44
2022-08-21T23:02:52.246Z,98001.78
2022-08-21T23:05:39.168Z,97982.69
2022-08-21T23:08:38.675Z,97990.41
2022-08-21T23:11:39.936Z,97987.81
2022-08-21T23:14:11.955Z,97991.44
2022-08-21T23:17:00.991Z,97991.09
2022-08-21T23:19:57.571Z,97987.31
2022-08-21T23:22:40.690Z,98000.84
2022-08-21T23:25:27.582Z,98001.53
2022-08-21T23:28:16.248Z,97984.28
2022-08-21T23:31:01.021Z,97994.88
2022-08-21T23:33:55.736Z,97978.31
2022-08-21T23:37:09.358Z,97981.91
2022-08-21T23:40:06.982Z,97981.91
2022-08-21T23:43:21.242Z,97986.13
2022-08-21T23:46:16.052Z,97975.69
2022-08-21T23:49:20.434Z,97981.28
2022-08-21T23:51:52.882Z,97983.97
2022-08-21T23:54:55.951Z,97975.63
2022-08-21T23:57:44.583Z,97982.41
